This is the latest recevied weather packets stored in our database for station/object WA1TYB-13. If no packets are shown the sender has not sent any weather packets the latest 10 day(s).
| Time | Temp. | Humidity | Pressure | Rain* | Wind** | Luminosity | Snow |
|---|---|---|---|---|---|---|---|
| 1778115576 | 20.56° C | 26% | 1011.4 hPa | 0 mm | - | 132 W/m² | - |
| 1778115273 | 20.56° C | 25% | 1011.3 hPa | 0 mm | - | 104 W/m² | - |
| 1778114970 | 20.56° C | 27% | 1011.3 hPa | 0 mm | - | 92 W/m² | - |
| 1778114666 | 20.56° C | 26% | 1011.1 hPa | 0 mm | - | 93 W/m² | - |
| 1778114364 | 20.56° C | 24% | 1011.1 hPa | 0 mm | - | 95 W/m² | - |
| 1778114059 | 20.56° C | 27% | 1011.2 hPa | 0 mm | - | 97 W/m² | - |
| 1778113754 | 20.56° C | 25% | 1011.3 hPa | 0 mm | - | 109 W/m² | - |
| 1778113451 | 20.56° C | 25% | 1011.3 hPa | 0 mm | - | 81 W/m² | - |
| 1778113148 | 21.11° C | 24% | 1011.1 hPa | 0 mm | - | 94 W/m² | - |
| 1778112845 | 21.67° C | 23% | 1011.4 hPa | 0 mm | - | 189 W/m² | - |
| 1778112542 | 22.22° C | 24% | 1011.4 hPa | 0 mm | - | 292 W/m² | - |
| 1778112237 | 21.67° C | 23% | 1011.2 hPa | 0 mm | - | 360 W/m² | - |
| 1778111934 | 21.11° C | 23% | 1011.3 hPa | 0 mm | - | 384 W/m² | - |
| 1778111631 | 21.67° C | 24% | 1011.3 hPa | 0 mm | - | 175 W/m² | - |
| 1778111326 | 21.67° C | 23% | 1011.2 hPa | 0 mm | - | 154 W/m² | - |
| 1778111024 | 21.11° C | 26% | 1011.2 hPa | 0 mm | - | 147 W/m² | - |
| 1778110722 | 21.11° C | 24% | 1011.2 hPa | 0 mm | - | 148 W/m² | - |
| 1778110417 | 21.11° C | 24% | 1011.4 hPa | 0 mm | - | 113 W/m² | - |
| 1778110115 | 21.11° C | 24% | 1011.5 hPa | 0 mm | - | 157 W/m² | - |
| 1778109811 | 21.67° C | 23% | 1011.5 hPa | 0 mm | - | 165 W/m² | - |
| 1778109507 | 21.11° C | 23% | 1011.4 hPa | 0 mm | - | 310 W/m² | - |
| 1778109205 | 21.11° C | 23% | 1011.5 hPa | 0 mm | - | 448 W/m² | - |
| 1778108902 | 22.22° C | 23% | 1011.6 hPa | 0 mm | - | 179 W/m² | - |
| 1778108599 | 21.67° C | 23% | 1011.8 hPa | 0 mm | - | 525 W/m² | - |
| 1778108295 | 21.11° C | 22% | 1011.7 hPa | 0 mm | - | 502 W/m² | - |
* Rain latest hour (hover to see other rain measurements)
** Current wind speed in m/s (hover to see current wind gust speed)